CheckWX is a tool to help pilots better visualize weather data.  It is not intended as a substitute for an official pre-flight weather briefing.

16:29:59 UTC

CYNM METAR
Matagami Airport
Matagami, Canada
Current

30 mins ago

CYNM 131600Z AUTO VRB02KT 7SM -SN OVC070 M16/M18 A3011 RMK SLP230
Observed
Dec-13 @ 16:00 UTC
Wind
  • Variable at 2 KTS
Visibility
7 SM
Flight Rules
VFR
Conditions
Light Snow
Cloud Levels
  • Overcast at 7,000' AGL
Temperature
-16°C / 3°F
Dewpoint
-18°C / -0°F
Humidity
85%
Altimeter
30.11" Hg
Pressure
1019.62 hPa
Previous

49 mins ago

CYNM 131541Z AUTO 36003KT 9SM -SN SCT014 OVC070 M17/M18 A3011 RMK SLP232
Observed
Dec-13 @ 15:41 UTC
Wind
  • 360° at 3 KTS
Visibility
9 SM
Flight Rules
VFR
Conditions
Light Snow
Cloud Levels
  • Scattered at 1,400' AGL
  • Overcast at 7,000' AGL
Temperature
-17°C / 1°F
Dewpoint
-18°C / -0°F
Humidity
92%
Altimeter
30.11" Hg
Pressure
1019.62 hPa
Previous

1 hour ago

CYNM 131500Z AUTO 04003KT 360V070 9SM -SN OVC012 M18/M19 A3012 RMK SLP235
Observed
Dec-13 @ 15:00 UTC
Wind
  • 040° at 3 KTS
Visibility
9 SM
Flight Rules
MVFR
Conditions
Light Snow
Cloud Levels
  • Overcast at 1,200' AGL
Temperature
-18°C / -0°F
Dewpoint
-19°C / -2°F
Humidity
92%
Altimeter
30.12" Hg
Pressure
1020.02 hPa